Time;durP1;ratioP1;P1;durP2;ratioP2;P2;SDS_P1;SDS_P2;PMS_P1;PMS_P2;Temp;Humidity;BMP_temperature;BMP_pressure;BME280_temperature;BME280_humidity;BME280_pressure;Samples;Min_cycle;Max_cycle;Signal;HPM_P1;HPM_P2
2022/11/30 00:01:40;;;;;;;;;;;;;;;8.79;100.00;100015.56;6304359;22;19950;-87
2022/11/30 00:04:06;;;;;;;;;;;;;;;8.78;100.00;100017.34;6307377;22;20289;-91
2022/11/30 00:06:32;;;;;;;;;;;;;;;8.81;100.00;100011.97;6307365;22;19918;-88
2022/11/30 00:08:57;;;;;;;;;;;;;;;8.82;100.00;100013.72;6308975;22;19910;-90
2022/11/30 00:11:24;;;;;;;;;;;;;;;8.83;100.00;100009.28;6334102;22;19910;-95
2022/11/30 00:13:49;;;;;;;;;;;;;;;8.82;100.00;100005.78;6306956;22;19985;-88
2022/11/30 00:16:14;;;;;;;;;;;;;;;8.83;100.00;100009.28;6306390;22;19938;-88
2022/11/30 00:18:40;;;;;;;;;;;;;;;8.84;100.00;100001.31;6307948;22;19946;-89
2022/11/30 00:21:07;;;;;;;;;;;;;;;8.86;100.00;100010.03;6308163;22;19911;-90
2022/11/30 00:23:40;;;;;;;;;;;;;;;8.87;100.00;100010.88;6306762;22;19911;-90
2022/11/30 09:09:24;;;;;;;;;;;;;;;9.02;100.00;100097.63;6339056;22;19922;-92
2022/11/30 09:11:55;;;;;;;;;;;;;;;9.02;100.00;100099.41;6342353;22;19914;-96
2022/11/30 09:14:22;;;;;;;;;;;;;;;9.04;100.00;100109.00;6340469;22;19960;-95
2022/11/30 09:16:48;;;;;;;;;;;;;;;9.08;100.00;100107.16;6340430;22;19918;-87
2022/11/30 09:19:13;;;;;;;;;;;;;;;9.08;100.00;100115.09;6340789;22;19910;-91
2022/11/30 09:21:38;;;;;;;;;;;;;;;9.05;100.00;100105.47;6337997;22;19911;-91
2022/11/30 09:24:04;;;;;;;;;;;;;;;9.09;100.00;100108.84;6338573;22;19999;-86
2022/11/30 09:26:29;;;;;;;;;;;;;;;9.08;100.00;100117.72;6339753;22;19910;-95
2022/11/30 09:28:57;;;;;;;;;;;;;;;9.11;100.00;100108.81;6340967;22;19945;-93
2022/11/30 09:31:23;;;;;;;;;;;;;;;9.14;100.00;100125.44;6340187;22;19910;-89
2022/11/30 09:33:48;;;;;;;;;;;;;;;9.13;100.00;100113.16;6339766;22;19965;-92
2022/11/30 09:36:19;;;;;;;;;;;;;;;9.14;100.00;100116.66;6338035;22;20257;-91
2022/11/30 09:38:45;;;;;;;;;;;;;;;9.14;100.00;100114.84;6340488;22;19911;-92
2022/11/30 09:41:35;;;;;;;;;;;;;;;8.33;100.00;100118.16;6339320;22;19918;-88
2022/11/30 09:44:19;;;;;;;;;;;;;;;7.75;100.00;100116.16;6339093;22;19925;-93
2022/11/30 09:46:45;;;;;;;;;;;;;;;7.51;100.00;100125.56;6339254;22;19919;-93
2022/11/30 09:49:10;;;;;;;;;;;;;;;7.37;100.00;100117.13;6339881;22;20364;-91
2022/11/30 09:51:45;;;;;;;;;;;;;;;7.30;100.00;100123.47;6337687;22;20340;-91
2022/11/30 09:54:21;;;;;;;;;;;;;;;7.23;100.00;100125.41;6339523;22;19910;-94
2022/11/30 09:56:46;;;;;;;;;;;;;;;7.11;100.00;100120.41;6339446;22;19911;-93
2022/11/30 09:59:20;;;;;;;;;;;;;;;7.04;100.00;100120.53;6337778;22;19937;-93
2022/11/30 10:01:47;;;;;;;;;;;;;;;7.01;100.00;100125.88;6363782;22;19910;-92
2022/11/30 10:04:26;;;;;;;;;;;;;;;6.95;100.00;100123.38;6339229;22;19911;-89
2022/11/30 10:06:59;;;;;;;;;;;;;;;6.94;100.00;100123.41;6338629;22;19917;-94
2022/11/30 10:09:24;;;;;;;;;;;;;;;6.90;100.00;100122.63;6337846;22;19994;-94
2022/11/30 10:11:55;;;;;;;;;;;;;;;6.88;100.00;100119.16;6339041;22;19910;-95
2022/11/30 10:14:23;;;;;;;;;;;;;;;6.78;100.00;100120.25;6339270;22;19915;-91
2022/11/30 10:17:07;;;;;;;;;;;;;;;6.78;100.00;100115.00;6340729;22;19919;-94
2022/11/30 10:19:50;;;;;;;;;;;;;;;6.71;100.00;100115.13;6340885;22;19914;-87
2022/11/30 10:22:25;;;;;;;;;;;;;;;6.64;100.00;100115.31;6339281;22;19922;-89
2022/11/30 10:25:11;;;;;;;;;;;;;;;6.61;100.00;100110.97;6340563;22;19939;-89
2022/11/30 10:27:53;;;;;;;;;;;;;;;6.60;100.00;100106.59;6340372;22;19911;-88
2022/11/30 10:30:22;;;;;;;;;;;;;;;6.51;100.00;100104.16;6340960;22;19972;-88
2022/11/30 10:32:52;;;;;;;;;;;;;;;6.51;100.00;100112.94;6340823;22;20226;-89
2022/11/30 10:35:32;;;;;;;;;;;;;;;6.47;100.00;100107.75;6365463;22;20002;-86
2022/11/30 10:37:59;;;;;;;;;;;;;;;6.44;100.00;100107.81;6338548;22;19914;-90
2022/11/30 10:40:42;;;;;;;;;;;;;;;6.46;100.00;100106.91;6340430;22;19913;-88
2022/11/30 10:43:16;;;;;;;;;;;;;;;6.37;100.00;100101.81;6340485;22;19946;-89
2022/11/30 10:45:48;;;;;;;;;;;;;;;6.33;100.00;100100.13;6340475;22;19960;-88
2022/11/30 10:48:16;;;;;;;;;;;;;;;6.33;100.00;100098.41;6340866;22;19910;-94
2022/11/30 10:50:46;;;;;;;;;;;;;;;6.27;100.00;100095.00;6338733;22;20446;-89
2022/11/30 10:53:12;;;;;;;;;;;;;;;6.26;100.00;100096.78;6341607;22;19957;-92
2022/11/30 10:55:58;;;;;;;;;;;;;;;6.22;100.00;100092.44;6340895;22;20238;-85
2022/11/30 11:01:39;;;;;;;;;;;;;;;6.11;100.00;100097.94;6187741;23;19967;-92
2022/11/30 11:04:12;;;;;;;;;;;;;;;6.15;100.00;100099.59;6325362;22;19910;-88
2022/11/30 11:06:56;;;;;;;;;;;;;;;6.09;100.00;100091.84;6338879;22;20348;-90
2022/11/30 11:09:45;;;;;;;;;;;;;;;5.98;100.00;100093.81;6340300;22;19914;-83
2022/11/30 11:12:13;;;;;;;;;;;;;;;5.98;100.00;100088.53;6340916;22;19914;-88
2022/11/30 11:14:38;;;;;;;;;;;;;;;5.98;100.00;100092.06;6340460;22;19921;-90
2022/11/30 11:17:05;;;;;;;;;;;;;;;5.95;100.00;100086.81;6340591;22;19910;-91
2022/11/30 11:19:38;;;;;;;;;;;;;;;5.90;100.00;100091.28;6340623;22;19911;-86
2022/11/30 11:22:15;;;;;;;;;;;;;;;5.89;100.00;100089.56;6338670;22;19914;-88
2022/11/30 11:24:41;;;;;;;;;;;;;;;5.87;100.00;100094.00;6340513;22;19934;-92
2022/11/30 11:27:18;;;;;;;;;;;;;;;5.87;100.00;100080.84;6340910;22;20219;-91
2022/11/30 11:29:43;;;;;;;;;;;;;;;5.85;100.00;100080.00;6340467;22;19911;-90
2022/11/30 11:32:21;;;;;;;;;;;;;;;5.81;100.00;100087.06;6338848;22;19918;-85
2022/11/30 11:34:47;;;;;;;;;;;;;;;5.79;100.00;100086.25;6340063;22;19917;-91
2022/11/30 11:37:25;;;;;;;;;;;;;;;5.74;100.00;100082.81;6338683;22;19910;-92
2022/11/30 11:40:21;;;;;;;;;;;;;;;5.72;100.00;100089.00;6340332;22;19914;-87
2022/11/30 11:42:46;;;;;;;;;;;;;;;5.74;100.00;100081.94;6314683;22;19937;-91
2022/11/30 11:45:37;;;;;;;;;;;;;;;5.72;100.00;100087.25;6340565;22;20280;-91
2022/11/30 11:48:04;;;;;;;;;;;;;;;5.69;100.00;100087.28;6335477;22;20292;-92
2022/11/30 11:50:33;;;;;;;;;;;;;;;5.72;100.00;100094.28;6340539;22;19911;-85
2022/11/30 11:53:21;;;;;;;;;;;;;;;5.66;100.00;100092.59;6340182;22;19915;-92
2022/11/30 11:55:48;;;;;;;;;;;;;;;5.60;100.00;100087.44;6340081;22;20318;-93
2022/11/30 11:58:18;;;;;;;;;;;;;;;5.60;100.00;100083.09;6340464;22;19911;-92
2022/11/30 12:00:44;;;;;;;;;;;;;;;5.54;100.00;100088.44;6340162;22;19913;-90
2022/11/30 12:03:45;;;;;;;;;;;;;;;5.58;100.00;100084.00;6364984;22;19910;-91
2022/11/30 12:06:13;;;;;;;;;;;;;;;5.51;100.00;100083.25;6217038;23;20000;-84
2022/11/30 12:09:01;;;;;;;;;;;;;;;5.52;100.00;100078.84;6340803;22;20425;-89
2022/11/30 12:11:40;;;;;;;;;;;;;;;5.52;100.00;100074.47;6364334;22;19918;-92
2022/11/30 12:14:10;;;;;;;;;;;;;;;5.52;100.00;100073.56;6364621;22;19911;-83
2022/11/30 12:16:36;;;;;;;;;;;;;;;5.48;100.00;100078.03;6340171;22;20341;-89
2022/11/30 12:19:10;;;;;;;;;;;;;;;5.41;100.00;100071.16;6338272;22;20044;-90
2022/11/30 12:21:38;;;;;;;;;;;;;;;5.46;100.00;100077.19;6339470;22;19910;-87
2022/11/30 12:24:15;;;;;;;;;;;;;;;5.42;100.00;100073.72;6342115;22;19989;-86
2022/11/30 12:27:07;;;;;;;;;;;;;;;5.50;100.00;100075.38;6369152;22;19910;-86
2022/11/30 12:29:48;;;;;;;;;;;;;;;5.48;100.00;100069.28;6306668;22;20287;-90
2022/11/30 12:32:16;;;;;;;;;;;;;;;5.41;100.00;100071.16;6367604;22;19911;-87
2022/11/30 12:34:44;;;;;;;;;;;;;;;5.40;100.00;100078.16;6344595;22;19910;-89
2022/11/30 12:37:15;;;;;;;;;;;;;;;5.40;100.00;100072.91;6343271;22;20012;-86
2022/11/30 12:39:51;;;;;;;;;;;;;;;5.39;100.00;100075.56;6346561;22;20248;-96
2022/11/30 12:42:27;;;;;;;;;;;;;;;5.38;100.00;100076.47;6343673;22;19911;-91
2022/11/30 12:44:52;;;;;;;;;;;;;;;5.30;100.00;100073.06;6344998;22;19985;-96
2022/11/30 12:47:30;;;;;;;;;;;;;;;5.36;100.00;100075.59;6341633;22;20238;-96
2022/11/30 12:49:59;;;;;;;;;;;;;;;5.28;100.00;100071.38;6345004;22;19934;-96
2022/11/30 12:52:43;;;;;;;;;;;;;;;5.27;100.00;100074.00;6340887;22;20349;-92
2022/11/30 12:55:23;;;;;;;;;;;;;;;5.25;100.00;100081.06;6341174;22;19919;-93
2022/11/30 12:57:58;;;;;;;;;;;;;;;5.27;100.00;100074.88;6342137;22;19921;-86
2022/11/30 13:00:27;;;;;;;;;;;;;;;5.30;100.00;100078.31;6343887;22;20372;-95
2022/11/30 13:03:12;;;;;;;;;;;;;;;5.27;100.00;100074.88;6345789;22;19911;-86
2022/11/30 13:05:43;;;;;;;;;;;;;;;5.27;100.00;100080.13;6342157;22;19910;-89
2022/11/30 13:08:21;;;;;;;;;;;;;;;5.34;100.00;100080.88;6344383;22;19925;-86
2022/11/30 13:10:48;;;;;;;;;;;;;;;5.32;100.00;100073.94;6343066;22;20329;-92
2022/11/30 13:13:15;;;;;;;;;;;;;;;5.26;100.00;100074.91;6344934;22;19914;-95
2022/11/30 13:15:42;;;;;;;;;;;;;;;5.31;100.00;100065.16;6345309;22;19987;-89
2022/11/30 13:18:11;;;;;;;;;;;;;;;5.28;100.00;100066.09;6343729;22;19917;-96
2022/11/30 13:20:36;;;;;;;;;;;;;;;5.31;100.00;100064.31;6343973;22;19942;-86
2022/11/30 13:23:11;;;;;;;;;;;;;;;5.28;100.00;100066.09;6342040;22;19918;-96
2022/11/30 13:26:14;;;;;;;;;;;;;;;5.24;100.00;100064.41;6343333;22;19910;-95
2022/11/30 13:28:40;;;;;;;;;;;;;;;5.18;100.00;100064.50;6250480;23;19911;-94
2022/11/30 13:31:11;;;;;;;;;;;;;;;5.23;100.00;100062.69;6248798;23;20375;-93
2022/11/30 13:33:37;;;;;;;;;;;;;;;5.14;100.00;100068.09;6297453;22;19911;-96
2022/11/30 13:36:20;;;;;;;;;;;;;;;5.18;100.00;100061.88;6339955;22;20318;-91
2022/11/30 13:38:46;;;;;;;;;;;;;;;5.21;100.00;100063.59;6345016;22;19911;-95
2022/11/30 13:41:18;;;;;;;;;;;;;;;5.18;100.00;100064.50;6345224;22;19989;-86
2022/11/30 13:43:45;;;;;;;;;;;;;;;5.15;100.00;100061.06;6345240;22;20028;-87
2022/11/30 13:46:22;;;;;;;;;;;;;;;5.08;100.00;100057.69;6372100;22;19910;-86
2022/11/30 13:48:48;;;;;;;;;;;;;;;5.13;100.00;100061.09;6368586;22;19914;-88
2022/11/30 13:51:32;;;;;;;;;;;;;;;5.12;100.00;100059.34;6373251;22;19911;-87
2022/11/30 13:54:16;;;;;;;;;;;;;;;5.06;100.00;100062.09;6343783;22;19910;-88
2022/11/30 13:56:41;;;;;;;;;;;;;;;5.08;100.00;100055.06;6342443;22;19958;-95
2022/11/30 13:59:22;;;;;;;;;;;;;;;5.11;100.00;100062.03;6342276;22;19910;-86
2022/11/30 14:01:51;;;;;;;;;;;;;;;5.09;100.00;100067.31;6342197;22;19911;-86
2022/11/30 14:04:21;;;;;;;;;;;;;;;5.13;100.00;100058.47;6343908;22;19917;-91
2022/11/30 14:06:47;;;;;;;;;;;;;;;5.08;100.00;100065.56;6341916;22;19911;-86
2022/11/30 14:09:33;;;;;;;;;;;;;;;5.15;100.00;100064.56;6341666;22;19914;-89
2022/11/30 14:12:18;;;;;;;;;;;;;;;5.06;100.00;100064.72;6368167;22;19911;-86
2022/11/30 14:14:45;;;;;;;;;;;;;;;5.05;100.00;100065.59;6343373;22;19910;-93
2022/11/30 14:17:12;;;;;;;;;;;;;;;5.01;100.00;100067.41;6341059;22;19915;-86
2022/11/30 14:19:41;;;;;;;;;;;;;;;5.03;100.00;100062.16;6341489;22;19918;-96
2022/11/30 14:22:09;;;;;;;;;;;;;;;5.06;100.00;100065.59;6339593;22;19915;-86
2022/11/30 14:24:35;;;;;;;;;;;;;;;5.09;100.00;100060.28;6341285;22;20340;-86
2022/11/30 14:27:01;;;;;;;;;;;;;;;5.04;100.00;100071.75;6339950;22;19911;-89
2022/11/30 14:29:30;;;;;;;;;;;;;;;5.06;100.00;100081.34;6341729;22;19911;-95
2022/11/30 14:32:01;;;;;;;;;;;;;;;4.97;100.00;100072.75;6341318;22;19911;-86
2022/11/30 14:34:30;;;;;;;;;;;;;;;4.99;100.00;100070.94;6341579;22;19911;-88
2022/11/30 14:36:59;;;;;;;;;;;;;;;4.99;100.00;100071.81;6339773;22;19987;-93
2022/11/30 14:39:26;;;;;;;;;;;;;;;5.02;100.00;100069.13;6343136;22;19917;-94
2022/11/30 14:41:51;;;;;;;;;;;;;;;4.95;100.00;100067.50;6342849;22;19911;-87
2022/11/30 14:44:17;;;;;;;;;;;;;;;5.01;100.00;100071.78;6341498;22;20276;-87
2022/11/30 14:46:42;;;;;;;;;;;;;;;5.31;100.00;100069.56;6340453;22;20276;-95
2022/11/30 14:49:11;;;;;;;;;;;;;;;5.78;100.00;100078.38;6340217;22;20018;-92
2022/11/30 14:51:37;;;;;;;;;;;;;;;6.13;100.00;100076.88;6339260;22;19910;-95
2022/11/30 14:54:12;;;;;;;;;;;;;;;6.38;100.00;100071.09;6340466;22;19917;-92
2022/11/30 14:56:47;;;;;;;;;;;;;;;6.58;100.00;100068.03;6340534;22;19911;-96
2022/11/30 14:59:25;;;;;;;;;;;;;;;6.72;100.00;100071.25;6340346;22;19915;-87
2022/11/30 15:01:57;;;;;;;;;;;;;;;6.85;100.00;100077.09;6340367;22;20322;-92
2022/11/30 15:04:26;;;;;;;;;;;;;;;6.98;100.00;100072.41;6340493;22;19911;-95
2022/11/30 15:06:51;;;;;;;;;;;;;;;7.01;100.00;100073.19;6338811;22;19955;-94
2022/11/30 15:09:18;;;;;;;;;;;;;;;7.12;100.00;100074.72;6340081;22;19950;-93
2022/11/30 15:11:45;;;;;;;;;;;;;;;7.20;100.00;100072.75;6341456;22;19910;-89
2022/11/30 15:14:10;;;;;;;;;;;;;;;7.24;100.00;100072.66;6342568;22;20009;-93
2022/11/30 15:16:36;;;;;;;;;;;;;;;7.31;100.00;100072.47;6367852;22;20318;-95
2022/11/30 15:19:18;;;;;;;;;;;;;;;7.38;100.00;100076.69;6341257;22;19989;-89
2022/11/30 15:21:45;;;;;;;;;;;;;;;7.43;100.00;100070.38;6365337;22;20087;-94
2022/11/30 15:24:11;;;;;;;;;;;;;;;7.48;100.00;100070.28;6341035;22;19917;-88
2022/11/30 15:26:40;;;;;;;;;;;;;;;7.55;100.00;100074.50;6340501;22;19985;-87
2022/11/30 15:29:08;;;;;;;;;;;;;;;7.59;100.00;100059.47;6339694;22;20242;-89
2022/11/30 15:31:38;;;;;;;;;;;;;;;7.60;100.00;100067.34;6341131;22;19963;-96
2022/11/30 15:34:05;;;;;;;;;;;;;;;7.64;100.00;100069.00;6341055;22;19917;-88
2022/11/30 15:36:34;;;;;;;;;;;;;;;7.70;100.00;100073.22;6339435;22;20230;-94
2022/11/30 15:39:02;;;;;;;;;;;;;;;7.74;100.00;100066.97;6341082;22;19918;-87
2022/11/30 15:41:27;;;;;;;;;;;;;;;7.78;100.00;100075.66;6340754;22;19911;-88
2022/11/30 15:43:54;;;;;;;;;;;;;;;7.82;100.00;100074.69;6339099;22;19933;-86
2022/11/30 15:46:28;;;;;;;;;;;;;;;7.84;100.00;100079.94;6340440;22;19960;-91
2022/11/30 15:49:03;;;;;;;;;;;;;;;7.89;100.00;100083.31;6339255;22;19911;-87
2022/11/30 15:51:35;;;;;;;;;;;;;;;7.92;100.00;100081.44;6338742;22;19915;-94
2022/11/30 15:54:00;;;;;;;;;;;;;;;7.94;100.00;100076.97;6340644;22;19936;-89
2022/11/30 15:56:27;;;;;;;;;;;;;;;7.97;100.00;100076.03;6341049;22;20382;-89
2022/11/30 15:58:59;;;;;;;;;;;;;;;7.97;100.00;100076.03;6341115;22;19910;-89
2022/11/30 16:01:25;;;;;;;;;;;;;;;7.98;100.00;100080.41;6345612;22;19906;-89
2022/11/30 16:03:53;;;;;;;;;;;;;;;8.02;100.00;100082.03;6342971;22;19911;-87
2022/11/30 16:06:19;;;;;;;;;;;;;;;8.05;100.00;100092.50;6337564;22;19922;-88
2022/11/30 16:08:47;;;;;;;;;;;;;;;8.08;100.00;100087.16;6340055;22;19915;-91
2022/11/30 16:11:13;;;;;;;;;;;;;;;8.09;100.00;100088.91;6339887;22;19956;-89
2022/11/30 16:13:41;;;;;;;;;;;;;;;8.12;100.00;100094.09;6339790;22;19915;-87
2022/11/30 16:16:10;;;;;;;;;;;;;;;8.15;100.00;100096.66;6339767;22;19911;-89
2022/11/30 16:18:36;;;;;;;;;;;;;;;8.21;100.00;100092.09;6339734;22;19964;-85
2022/11/30 16:21:04;;;;;;;;;;;;;;;8.21;100.00;100090.31;6339236;22;19914;-88
2022/11/30 16:23:32;;;;;;;;;;;;;;;8.25;100.00;100096.38;6364621;22;19911;-85
2022/11/30 16:25:58;;;;;;;;;;;;;;;8.26;100.00;100093.69;6339666;22;19914;-86
2022/11/30 16:28:23;;;;;;;;;;;;;;;8.27;100.00;100102.50;6339527;22;19911;-90
2022/11/30 16:30:48;;;;;;;;;;;;;;;8.29;100.00;100104.16;6337767;22;19925;-92
2022/11/30 16:33:15;;;;;;;;;;;;;;;8.31;100.00;100106.75;6364444;22;19956;-87
2022/11/30 16:35:57;;;;;;;;;;;;;;;8.35;100.00;100111.06;6338028;22;20022;-91
2022/11/30 16:38:23;;;;;;;;;;;;;;;8.33;100.00;100111.09;6364860;22;19914;-87
2022/11/30 16:40:48;;;;;;;;;;;;;;;8.35;100.00;100113.69;6365280;22;19915;-93
2022/11/30 16:43:14;;;;;;;;;;;;;;;8.39;100.00;100114.47;6340339;22;19910;-92
2022/11/30 16:45:40;;;;;;;;;;;;;;;8.41;100.00;100121.44;6341410;22;19993;-86
2022/11/30 16:48:05;;;;;;;;;;;;;;;8.41;100.00;100124.09;6340508;22;19917;-88
2022/11/30 16:50:33;;;;;;;;;;;;;;;8.42;100.00;100120.50;6340638;22;19910;-93
2022/11/30 16:52:59;;;;;;;;;;;;;;;8.47;100.00;100123.94;6339450;22;19946;-85
2022/11/30 16:55:27;;;;;;;;;;;;;;;8.47;100.00;100130.97;6338356;22;19933;-87
2022/11/30 16:57:54;;;;;;;;;;;;;;;8.49;100.00;100127.41;6339456;22;19917;-88
2022/11/30 17:00:20;;;;;;;;;;;;;;;8.51;100.00;100136.13;6338753;22;19910;-94
2022/11/30 17:03:04;;;;;;;;;;;;;;;8.49;100.00;100132.69;6338738;22;20409;-93
2022/11/30 17:05:35;;;;;;;;;;;;;;;8.51;100.00;100135.28;6340178;22;19907;-92
2022/11/30 17:08:01;;;;;;;;;;;;;;;8.56;100.00;100129.88;6336753;22;20322;-85
2022/11/30 17:10:26;;;;;;;;;;;;;;;8.52;100.00;100132.59;6337614;22;19942;-85
2022/11/30 17:12:51;;;;;;;;;;;;;;;8.55;100.00;100142.19;6339217;22;19910;-93
2022/11/30 17:15:18;;;;;;;;;;;;;;;8.56;100.00;100137.78;6338897;22;19911;-90
2022/11/30 17:17:44;;;;;;;;;;;;;;;8.58;100.00;100150.03;6339378;22;19911;-92
2022/11/30 17:20:10;;;;;;;;;;;;;;;8.60;100.00;100139.41;6339777;22;19984;-87
2022/11/30 17:22:37;;;;;;;;;;;;;;;8.61;100.00;100146.44;6338601;22;19981;-85
2022/11/30 17:25:03;;;;;;;;;;;;;;;8.62;100.00;100142.91;6340383;22;19910;-92
2022/11/30 17:27:29;;;;;;;;;;;;;;;8.61;100.00;100141.16;6366482;22;19964;-89
2022/11/30 17:30:02;;;;;;;;;;;;;;;8.64;100.00;100147.22;6341442;22;19910;-91
2022/11/30 17:32:30;;;;;;;;;;;;;;;8.65;100.00;100148.09;6340323;22;19917;-90
2022/11/30 17:34:56;;;;;;;;;;;;;;;8.67;100.00;100151.56;6341767;22;19911;-96
2022/11/30 17:37:22;;;;;;;;;;;;;;;8.68;100.00;100147.97;6341077;22;19948;-94
2022/11/30 17:39:47;;;;;;;;;;;;;;;8.70;100.00;100154.09;6366396;22;19911;-95
2022/11/30 17:42:12;;;;;;;;;;;;;;;8.70;100.00;100152.31;6342643;22;19917;-91
2022/11/30 17:44:38;;;;;;;;;;;;;;;8.71;100.00;100153.16;6340749;22;19979;-92
2022/11/30 17:47:03;;;;;;;;;;;;;;;8.71;100.00;100155.81;6339705;22;19989;-88
2022/11/30 17:49:28;;;;;;;;;;;;;;;8.74;100.00;100161.00;6340709;22;19919;-91
2022/11/30 17:51:53;;;;;;;;;;;;;;;8.75;100.00;100151.31;6340215;22;19910;-89
2022/11/30 17:54:19;;;;;;;;;;;;;;;8.79;100.00;100159.13;6341113;22;19936;-95
2022/11/30 17:56:44;;;;;;;;;;;;;;;8.78;100.00;100160.03;6341912;22;19911;-90
2022/11/30 17:59:10;;;;;;;;;;;;;;;8.77;100.00;100153.00;6340739;22;19911;-88
2022/11/30 18:01:35;;;;;;;;;;;;;;;8.79;100.00;100158.22;6342584;22;20230;-90
2022/11/30 18:04:00;;;;;;;;;;;;;;;8.82;100.00;100156.38;6343670;22;19945;-92
2022/11/30 18:06:29;;;;;;;;;;;;;;;8.83;100.00;100159.88;6340363;22;19934;-91
2022/11/30 18:08:55;;;;;;;;;;;;;;;8.81;100.00;100162.56;6339915;22;20017;-87
2022/11/30 18:11:22;;;;;;;;;;;;;;;8.85;100.00;100168.63;6342123;22;19964;-92
2022/11/30 18:13:50;;;;;;;;;;;;;;;8.84;100.00;100162.50;6365887;22;19915;-95
2022/11/30 18:16:19;;;;;;;;;;;;;;;8.86;100.00;100163.28;6341818;22;19910;-95
2022/11/30 18:18:44;;;;;;;;;;;;;;;8.88;100.00;100172.03;6367348;22;20322;-94
2022/11/30 18:21:10;;;;;;;;;;;;;;;8.88;100.00;100168.53;6341195;22;19917;-93
2022/11/30 18:23:36;;;;;;;;;;;;;;;8.88;100.00;100177.31;6341818;22;19918;-89
2022/11/30 18:26:03;;;;;;;;;;;;;;;8.88;100.00;100177.31;6338882;22;19963;-92
2022/11/30 18:28:28;;;;;;;;;;;;;;;8.90;100.00;100174.63;6340883;22;19915;-92
2022/11/30 18:30:56;;;;;;;;;;;;;;;8.89;100.00;100173.78;6341322;22;20330;-93
2022/11/30 18:33:21;;;;;;;;;;;;;;;8.90;100.00;100170.22;6339751;22;20279;-91
2022/11/30 18:35:46;;;;;;;;;;;;;;;8.91;100.00;100179.03;6339108;22;19985;-95
2022/11/30 18:38:12;;;;;;;;;;;;;;;8.94;100.00;100176.28;6342035;22;19918;-89
2022/11/30 18:40:37;;;;;;;;;;;;;;;8.95;100.00;100188.59;6342278;22;19914;-95
2022/11/30 18:43:03;;;;;;;;;;;;;;;8.97;100.00;100185.91;6341519;22;19945;-96
2022/11/30 18:45:29;;;;;;;;;;;;;;;8.98;100.00;100190.28;6342895;22;19914;-88
2022/11/30 18:47:55;;;;;;;;;;;;;;;8.97;100.00;100185.91;6340576;22;19956;-93
2022/11/30 18:50:20;;;;;;;;;;;;;;;8.99;100.00;100192.00;6337926;22;20260;-86
2022/11/30 18:52:45;;;;;;;;;;;;;;;9.00;100.00;100191.06;6338729;22;19915;-94
2022/11/30 18:55:13;;;;;;;;;;;;;;;9.00;100.00;100193.72;6339179;22;19933;-88
2022/11/30 18:57:38;;;;;;;;;;;;;;;9.03;100.00;100193.63;6365723;22;19922;-93
2022/11/30 19:00:04;;;;;;;;;;;;;;;9.03;100.00;100193.63;6340114;22;19915;-93
2022/11/30 19:02:29;;;;;;;;;;;;;;;9.05;100.00;100194.47;6341001;22;19918;-87
2022/11/30 19:04:54;;;;;;;;;;;;;;;9.04;100.00;100198.03;6341060;22;19910;-93
2022/11/30 19:07:20;;;;;;;;;;;;;;;9.07;100.00;100205.84;6338425;22;19918;-85
2022/11/30 19:09:45;;;;;;;;;;;;;;;9.09;100.00;100201.38;6340889;22;19910;-85
2022/11/30 19:12:10;;;;;;;;;;;;;;;9.08;100.00;100200.53;6339302;22;20226;-92
2022/11/30 19:14:35;;;;;;;;;;;;;;;9.08;100.00;100208.47;6340247;22;19942;-85
2022/11/30 19:17:01;;;;;;;;;;;;;;;9.08;100.00;100212.88;6340312;22;19911;-94
2022/11/30 19:19:26;;;;;;;;;;;;;;;9.09;100.00;100210.19;6340230;22;19964;-93
2022/11/30 19:21:51;;;;;;;;;;;;;;;9.11;100.00;100203.97;6339378;22;19994;-93
2022/11/30 19:24:16;;;;;;;;;;;;;;;9.02;100.00;100202.50;6313331;22;20330;-91
2022/11/30 19:26:42;;;;;;;;;;;;;;;8.23;100.00;100214.34;6339295;22;19915;-95
2022/11/30 19:29:09;;;;;;;;;;;;;;;7.82;100.00;100207.44;6340400;22;19915;-90
2022/11/30 19:31:34;;;;;;;;;;;;;;;7.60;100.00;100214.16;6365643;22;20384;-91
2022/11/30 19:33:59;;;;;;;;;;;;;;;7.45;100.00;100216.25;6339105;22;19911;-89
2022/11/30 19:36:26;;;;;;;;;;;;;;;7.37;100.00;100225.22;6338916;22;19910;-87
2022/11/30 19:38:51;;;;;;;;;;;;;;;7.27;100.00;100220.19;6364768;22;19915;-91
2022/11/30 19:41:18;;;;;;;;;;;;;;;7.19;100.00;100219.47;6366029;22;20076;-91
2022/11/30 19:43:43;;;;;;;;;;;;;;;7.14;100.00;100220.47;6339945;22;19919;-88
2022/11/30 19:46:10;;;;;;;;;;;;;;;7.10;100.00;100222.31;6338424;22;20326;-90
2022/11/30 19:48:36;;;;;;;;;;;;;;;7.00;100.00;100219.00;6363876;22;20570;-92
2022/11/30 19:51:05;;;;;;;;;;;;;;;6.94;100.00;100224.41;6363355;22;19918;-94
2022/11/30 19:53:30;;;;;;;;;;;;;;;6.90;100.00;100228.00;6338702;22;19906;-87
2022/11/30 19:56:03;;;;;;;;;;;;;;;6.83;100.00;100226.38;6339827;22;20222;-90
2022/11/30 19:58:29;;;;;;;;;;;;;;;6.78;100.00;100220.34;6338737;22;19911;-92
2022/11/30 20:00:54;;;;;;;;;;;;;;;6.80;100.00;100223.84;6364556;22;19911;-93
2022/11/30 20:03:19;;;;;;;;;;;;;;;6.73;100.00;100221.31;6339966;22;19949;-89
2022/11/30 20:05:49;;;;;;;;;;;;;;;6.69;100.00;100230.16;6337476;22;19914;-87
2022/11/30 20:08:14;;;;;;;;;;;;;;;6.63;100.00;100225.03;6339850;22;19915;-90
2022/11/30 20:10:39;;;;;;;;;;;;;;;6.66;100.00;100226.75;6338067;22;19911;-92
2022/11/30 20:13:05;;;;;;;;;;;;;;;6.59;100.00;100230.38;6338348;22;19911;-85
2022/11/30 20:15:30;;;;;;;;;;;;;;;6.56;100.00;100218.16;6339803;22;19911;-91
2022/11/30 20:17:55;;;;;;;;;;;;;;;6.50;100.00;100219.13;6338789;22;19917;-86
2022/11/30 20:20:20;;;;;;;;;;;;;;;6.49;100.00;100221.78;6338522;22;20045;-91
2022/11/30 20:22:46;;;;;;;;;;;;;;;6.44;100.00;100219.25;6337145;22;19910;-90
2022/11/30 20:25:11;;;;;;;;;;;;;;;6.45;100.00;100221.00;6338771;22;20203;-88
2022/11/30 20:27:36;;;;;;;;;;;;;;;6.39;100.00;100225.50;6338469;22;19997;-93
2022/11/30 20:30:02;;;;;;;;;;;;;;;6.34;100.00;100223.81;6339663;22;19914;-88
2022/11/30 20:32:27;;;;;;;;;;;;;;;6.36;100.00;100227.28;6364227;22;19911;-89
2022/11/30 20:34:52;;;;;;;;;;;;;;;6.33;100.00;100227.38;6337260;22;19915;-91
2022/11/30 20:37:17;;;;;;;;;;;;;;;6.29;100.00;100219.56;6335889;22;19914;-88
2022/11/30 20:39:43;;;;;;;;;;;;;;;6.23;100.00;100222.28;6337499;22;19915;-85
2022/11/30 20:42:08;;;;;;;;;;;;;;;6.23;100.00;100224.91;6339221;22;20314;-87
2022/11/30 20:44:33;;;;;;;;;;;;;;;6.24;100.00;100227.53;6333402;22;20050;-91
2022/11/30 20:46:59;;;;;;;;;;;;;;;6.13;100.00;100224.22;6337835;22;19910;-90
2022/11/30 20:49:24;;;;;;;;;;;;;;;6.14;100.00;100224.19;6337939;22;19914;-87
2022/11/30 20:51:49;;;;;;;;;;;;;;;6.06;100.00;100227.84;6337765;22;19921;-90
2022/11/30 20:54:15;;;;;;;;;;;;;;;5.99;100.00;100227.94;6340413;22;19920;-92
2022/11/30 20:56:41;;;;;;;;;;;;;;;5.94;100.00;100221.00;6365939;22;19910;-95
2022/11/30 20:59:07;;;;;;;;;;;;;;;5.97;100.00;100221.84;6337800;22;20337;-89
2022/11/30 21:01:33;;;;;;;;;;;;;;;5.92;100.00;100223.66;6363904;22;19964;-89
2022/11/30 21:03:59;;;;;;;;;;;;;;;5.90;100.00;100228.06;6363058;22;19915;-82
2022/11/30 21:06:24;;;;;;;;;;;;;;;5.84;100.00;100228.19;6336277;22;20318;-87
2022/11/30 21:08:50;;;;;;;;;;;;;;;5.88;100.00;100224.59;6339145;22;19996;-89
2022/11/30 21:11:16;;;;;;;;;;;;;;;5.81;100.00;100226.47;6339264;22;20234;-88
2022/11/30 21:13:44;;;;;;;;;;;;;;;6.15;100.00;100223.28;6339414;22;19906;-87
2022/11/30 21:16:10;;;;;;;;;;;;;;;6.17;100.00;100226.78;6363811;22;19921;-89
2022/11/30 21:18:36;;;;;;;;;;;;;;;5.97;100.00;100235.00;6364178;22;19955;-86
2022/11/30 21:21:06;;;;;;;;;;;;;;;5.90;100.00;100232.44;6338105;22;20472;-87
2022/11/30 21:23:31;;;;;;;;;;;;;;;5.86;100.00;100231.66;6364301;22;19917;-85
2022/11/30 21:26:01;;;;;;;;;;;;;;;5.82;100.00;100219.44;6363404;22;20242;-84
2022/11/30 21:28:26;;;;;;;;;;;;;;;5.78;100.00;100223.00;6363319;22;19977;-89
2022/11/30 21:30:52;;;;;;;;;;;;;;;5.81;100.00;100223.81;6332131;22;19934;-85
2022/11/30 21:33:17;;;;;;;;;;;;;;;5.77;100.00;100229.16;6338682;22;19917;-88